Time;durP1;ratioP1;P1;durP2;ratioP2;P2;SDS_P1;SDS_P2;PMS_P1;PMS_P2;Temp;Humidity;BMP_temperature;BMP_pressure;BME280_temperature;BME280_humidity;BME280_pressure;Samples;Min_cycle;Max_cycle;Signal;HPM_P1;HPM_P2
2023/02/18 00:02:03;;;;;;;55.47;29.57;;;10.60;99.90;;;;;;5032062;28;20083;-78
2023/02/18 00:04:29;;;;;;;63.97;32.80;;;10.60;99.90;;;;;;5033007;28;20029;-79
2023/02/18 00:06:55;;;;;;;63.27;30.20;;;10.50;99.90;;;;;;5031784;28;20032;-77
2023/02/18 00:09:21;;;;;;;63.10;29.20;;;10.50;99.90;;;;;;5031631;28;20041;-78
2023/02/18 00:11:47;;;;;;;65.83;30.00;;;10.50;99.90;;;;;;5031932;28;20037;-78
2023/02/18 00:14:14;;;;;;;74.53;31.87;;;10.50;99.90;;;;;;5031776;28;20029;-78
2023/02/18 00:16:41;;;;;;;69.87;31.70;;;10.50;99.90;;;;;;5031696;28;20075;-77
2023/02/18 00:19:13;;;;;;;77.22;31.75;;;10.50;99.90;;;;;;5015325;28;20514;-78
2023/02/18 00:21:42;;;;;;;74.57;31.30;;;10.50;99.90;;;;;;5033401;28;20025;-79
2023/02/18 00:24:09;;;;;;;64.70;30.73;;;10.50;99.90;;;;;;5031498;28;20025;-78
2023/02/18 00:26:35;;;;;;;68.77;31.53;;;10.50;99.90;;;;;;5031564;28;20151;-79
2023/02/18 00:29:01;;;;;;;73.20;30.93;;;10.40;99.90;;;;;;5031624;28;20025;-78
2023/02/18 00:31:30;;;;;;;58.97;29.03;;;10.40;99.90;;;;;;5031525;28;20120;-77
2023/02/18 00:34:00;;;;;;;70.43;30.50;;;10.40;99.90;;;;;;5031809;28;20060;-78
2023/02/18 00:36:27;;;;;;;65.80;30.83;;;10.50;99.90;;;;;;5031764;28;20172;-80
2023/02/18 00:38:59;;;;;;;65.57;31.87;;;10.40;99.90;;;;;;5031438;28;20053;-77
2023/02/18 00:41:26;;;;;;;66.10;30.30;;;10.50;99.90;;;;;;5031431;28;20111;-77
2023/02/18 00:43:52;;;;;;;70.47;31.93;;;10.50;99.90;;;;;;5031553;28;20029;-78
2023/02/18 00:46:19;;;;;;;71.00;31.47;;;10.50;99.90;;;;;;5031449;28;20060;-78
2023/02/18 00:48:45;;;;;;;62.30;29.80;;;10.40;99.90;;;;;;5031454;28;20030;-78
2023/02/18 00:51:11;;;;;;;72.40;32.17;;;10.50;99.90;;;;;;5031931;28;20033;-77
2023/02/18 00:53:38;;;;;;;64.37;30.07;;;10.40;99.90;;;;;;5018964;28;20033;-77
2023/02/18 00:56:04;;;;;;;66.73;30.77;;;10.40;99.90;;;;;;5035057;28;20021;-78
2023/02/18 00:58:30;;;;;;;62.67;28.97;;;10.50;99.90;;;;;;5034974;28;20035;-79
2023/02/18 01:01:37;;;;;;;66.30;30.40;;;10.50;99.90;;;;;;5035160;28;20025;-79
2023/02/18 01:04:02;;;;;;;59.00;27.97;;;10.50;99.90;;;;;;5036238;28;20034;-79
2023/02/18 01:06:28;;;;;;;63.07;29.93;;;10.50;99.90;;;;;;5035223;28;20398;-78
2023/02/18 01:09:01;;;;;;;65.13;29.53;;;10.50;99.90;;;;;;5035971;28;20056;-78
2023/02/18 01:11:26;;;;;;;63.63;26.87;;;10.50;99.90;;;;;;5019055;28;20063;-78
2023/02/18 01:13:53;;;;;;;60.13;29.37;;;10.50;99.90;;;;;;5018365;28;20128;-78
2023/02/18 01:16:29;;;;;;;64.00;28.90;;;10.50;99.90;;;;;;5018131;28;20032;-78
2023/02/18 01:18:54;;;;;;;53.33;26.90;;;10.50;99.90;;;;;;5018646;28;20044;-79
2023/02/18 01:21:20;;;;;;;60.60;29.37;;;10.50;99.90;;;;;;5019046;28;20034;-78
2023/02/18 01:23:46;;;;;;;52.30;27.40;;;10.50;99.90;;;;;;5035314;28;20036;-78
2023/02/18 01:26:12;;;;;;;59.30;25.83;;;10.50;99.90;;;;;;5034621;28;20030;-79
2023/02/18 01:28:41;;;;;;;57.27;28.83;;;10.50;99.90;;;;;;5034421;28;20082;-78
2023/02/18 01:31:11;;;;;;;66.03;31.57;;;10.50;99.90;;;;;;5034383;28;20036;-78
2023/02/18 01:33:37;;;;;;;65.57;31.87;;;10.50;99.90;;;;;;5034769;28;20485;-80
2023/02/18 01:36:06;;;;;;;61.33;29.03;;;10.50;99.90;;;;;;5034482;28;20022;-80
2023/02/18 01:38:33;;;;;;;60.60;29.47;;;10.50;99.90;;;;;;5034232;28;20051;-78
2023/02/18 01:41:01;;;;;;;60.73;30.93;;;10.50;99.90;;;;;;5034278;28;20354;-83
2023/02/18 01:43:26;;;;;;;63.87;29.37;;;10.50;99.90;;;;;;5017975;28;20026;-84
2023/02/18 01:46:37;;;;;;;66.67;32.87;;;10.50;99.90;;;;;;5034257;28;20029;-83
2023/02/18 01:49:03;;;;;;;64.10;31.65;;;10.50;99.90;;;;;;5028124;28;20033;-84
2023/02/18 01:51:33;;;;;;;71.03;34.07;;;10.50;99.90;;;;;;5017680;28;20029;-83
2023/02/18 01:54:05;;;;;;;72.37;32.87;;;10.40;99.90;;;;;;5034430;28;20022;-83
2023/02/18 01:56:55;;;;;;;72.63;33.93;;;10.50;99.90;;;;;;5034144;28;20061;-83
2023/02/18 01:59:25;;;;;;;72.23;36.20;;;10.50;99.90;;;;;;5035196;28;20026;-86
2023/02/18 02:01:52;;;;;;;80.83;36.53;;;10.40;99.90;;;;;;5034065;28;20025;-85
2023/02/18 02:04:20;;;;;;;87.93;39.50;;;10.40;99.90;;;;;;5033343;28;20489;-85
2023/02/18 02:06:46;;;;;;;87.23;38.53;;;10.40;99.90;;;;;;5017369;28;20029;-86
2023/02/18 02:09:15;;;;;;;78.83;36.93;;;10.40;99.90;;;;;;5033264;28;20136;-84
2023/02/18 02:12:08;;;;;;;82.40;37.37;;;10.40;99.90;;;;;;5035039;28;20092;-85
2023/02/18 02:14:46;;;;;;;86.70;39.00;;;10.40;99.90;;;;;;5033247;28;20056;-84
2023/02/18 02:17:33;;;;;;;89.37;41.00;;;10.40;99.90;;;;;;5034024;28;20037;-84
2023/02/18 02:20:16;;;;;;;79.77;37.40;;;10.40;99.90;;;;;;5033740;28;20067;-85
2023/02/18 02:23:22;;;;;;;92.30;39.60;;;10.40;99.90;;;;;;5033715;28;20116;-85
2023/02/18 02:25:57;;;;;;;82.83;40.07;;;10.40;99.90;;;;;;5033933;28;20116;-84
2023/02/18 02:29:10;;;;;;;88.07;39.57;;;10.40;99.90;;;;;;5033536;28;20470;-84
2023/02/18 02:31:52;;;;;;;85.20;40.03;;;10.40;99.90;;;;;;5033561;28;20092;-84
2023/02/18 02:34:59;;;;;;;90.90;42.00;;;10.40;99.90;;;;;;5033351;28;20294;-85
2023/02/18 02:37:54;;;;;;;96.47;42.07;;;10.40;99.90;;;;;;5015715;28;20037;-84
2023/02/18 02:40:39;;;;;;;100.77;45.50;;;10.50;99.90;;;;;;5032886;28;20037;-84
2023/02/18 02:43:40;;;;;;;96.33;43.83;;;10.50;99.90;;;;;;5033351;28;20481;-85
2023/02/18 02:46:16;;;;;;;92.83;43.50;;;10.50;99.90;;;;;;5023825;28;20052;-85
2023/02/18 02:48:59;;;;;;;103.93;44.58;;;10.50;99.90;;;;;;5033203;28;20021;-85
2023/02/18 02:51:43;;;;;;;92.83;42.03;;;10.60;99.90;;;;;;5033186;28;20076;-78
2023/02/18 02:54:20;;;;;;;97.00;41.75;;;10.60;99.90;;;;;;5032807;28;20427;-78
2023/02/18 02:56:46;;;;;;;106.95;44.97;;;10.60;99.90;;;;;;5032978;28;20021;-78
2023/02/18 02:59:22;;;;;;;105.05;46.28;;;10.60;99.90;;;;;;5032832;28;20101;-79
2023/02/18 03:02:12;;;;;;;98.93;42.23;;;10.60;99.90;;;;;;5032799;28;20021;-78
2023/02/18 03:05:07;;;;;;;102.75;42.20;;;10.60;99.90;;;;;;5033074;28;20363;-78
2023/02/18 03:07:38;;;;;;;;;;;10.70;99.90;;;;;;5033850;28;20029;-78
2023/02/18 03:10:21;;;;;;;103.20;43.87;;;10.70;99.90;;;;;;5050228;28;19913;-79
2023/02/18 03:13:08;;;;;;;104.17;43.27;;;10.70;99.90;;;;;;5032875;28;20355;-79
2023/02/18 03:15:55;;;;;;;105.13;42.67;;;10.70;99.90;;;;;;5032909;28;20029;-79
2023/02/18 03:18:38;;;;;;;104.57;43.83;;;10.70;99.90;;;;;;5032699;28;20478;-78
2023/02/18 03:21:32;;;;;;;99.68;42.95;;;10.70;99.90;;;;;;5032689;28;20042;-79
2023/02/18 03:24:13;;;;;;;95.68;41.22;;;10.70;99.90;;;;;;5032422;28;20025;-78
2023/02/18 03:26:44;;;;;;;93.33;38.67;;;10.70;99.90;;;;;;5033863;28;20036;-78
2023/02/18 03:29:13;;;;;;;87.60;38.43;;;10.70;99.90;;;;;;5032236;28;20052;-78
2023/02/18 03:31:41;;;;;;;86.97;37.07;;;10.80;99.90;;;;;;5032791;28;20116;-78
2023/02/18 03:34:12;;;;;;;91.40;37.13;;;10.70;99.90;;;;;;5032225;28;20469;-79
2023/02/18 03:36:39;;;;;;;87.00;36.13;;;10.80;99.90;;;;;;5032377;28;20021;-79
2023/02/18 03:39:15;;;;;;;84.93;34.97;;;10.80;99.90;;;;;;5015564;28;20027;-79
2023/02/18 03:41:42;;;;;;;77.05;32.80;;;10.80;99.90;;;;;;5032102;28;20505;-78
2023/02/18 03:44:09;;;;;;;67.93;29.58;;;10.80;99.90;;;;;;5032002;28;20032;-79
2023/02/18 03:46:37;;;;;;;64.78;28.95;;;10.80;99.90;;;;;;5015779;28;20496;-78
2023/02/18 03:49:03;;;;;;;57.60;27.75;;;10.90;99.90;;;;;;5015910;28;20030;-77
2023/02/18 03:51:29;;;;;;;56.65;26.40;;;10.90;99.90;;;;;;5031974;28;20032;-78
2023/02/18 03:53:58;;;;;;;53.17;24.73;;;10.90;99.90;;;;;;5015589;28;20036;-78
2023/02/18 03:56:23;;;;;;;48.80;22.53;;;10.80;99.90;;;;;;5032052;28;20022;-77
2023/02/18 03:58:49;;;;;;;47.93;22.90;;;10.80;99.90;;;;;;5015599;28;20032;-79
2023/02/18 04:01:15;;;;;;;50.17;22.83;;;10.90;99.90;;;;;;5032603;28;20387;-78
2023/02/18 04:03:41;;;;;;;46.43;21.97;;;10.80;99.90;;;;;;5015712;28;20442;-79
2023/02/18 04:06:07;;;;;;;48.22;23.15;;;10.80;99.90;;;;;;5033475;28;20091;-78
2023/02/18 04:08:32;;;;;;;43.43;19.53;;;10.80;99.90;;;;;;4999464;28;20402;-79
2023/02/18 04:10:58;;;;;;;43.42;21.73;;;10.90;99.90;;;;;;5000075;28;20603;-78
2023/02/18 04:13:24;;;;;;;51.53;23.43;;;10.90;99.90;;;;;;4998989;28;20024;-80
2023/02/18 04:15:50;;;;;;;49.60;22.23;;;10.90;99.90;;;;;;5015399;28;20030;-80
2023/02/18 04:18:17;;;;;;;48.43;21.93;;;10.90;99.90;;;;;;5031934;28;20051;-80
2023/02/18 04:20:43;;;;;;;49.53;22.60;;;10.90;99.90;;;;;;5015658;28;20028;-80
2023/02/18 04:23:09;;;;;;;49.97;23.40;;;10.90;99.90;;;;;;5032450;28;20022;-79
2023/02/18 04:25:34;;;;;;;49.73;24.33;;;10.90;99.90;;;;;;5032070;28;20025;-79
2023/02/18 04:28:00;;;;;;;49.47;22.25;;;10.90;99.90;;;;;;5035175;28;20021;-80
2023/02/18 04:30:27;;;;;;;43.40;20.23;;;10.90;99.90;;;;;;5035992;28;20075;-79
2023/02/18 04:32:53;;;;;;;43.37;20.67;;;10.90;99.90;;;;;;5019362;28;20469;-79
2023/02/18 04:35:18;;;;;;;40.88;18.33;;;10.90;99.90;;;;;;5002714;28;20037;-79
2023/02/18 04:37:44;;;;;;;37.50;17.10;;;10.90;99.90;;;;;;5019142;28;20389;-79
2023/02/18 04:40:10;;;;;;;35.97;17.27;;;10.90;99.90;;;;;;5002790;28;20450;-78
2023/02/18 04:42:36;;;;;;;36.38;17.67;;;10.90;99.90;;;;;;5035451;28;20024;-79
2023/02/18 04:45:02;;;;;;;35.60;15.40;;;10.90;99.90;;;;;;5035320;28;20033;-79
2023/02/18 04:47:28;;;;;;;31.87;14.77;;;10.90;99.90;;;;;;5019089;28;20026;-79
2023/02/18 04:49:54;;;;;;;31.37;14.73;;;10.90;99.90;;;;;;5035653;28;20014;-79
2023/02/18 04:52:19;;;;;;;33.40;15.02;;;10.90;99.90;;;;;;5018951;28;20164;-86
2023/02/18 04:54:45;;;;;;;31.07;14.37;;;10.90;99.90;;;;;;5018950;28;20382;-84
2023/02/18 04:57:11;;;;;;;27.30;13.75;;;10.90;99.90;;;;;;5035015;28;20018;-83
2023/02/18 04:59:37;;;;;;;29.13;13.47;;;10.90;99.90;;;;;;5018546;28;20033;-83
2023/02/18 05:02:03;;;;;;;28.83;12.90;;;10.90;99.90;;;;;;5002276;28;20628;-84
2023/02/18 05:04:29;;;;;;;25.17;11.25;;;10.80;99.90;;;;;;5035012;28;20071;-83
2023/02/18 05:06:55;;;;;;;25.83;11.73;;;10.80;99.90;;;;;;5035141;28;20120;-84
2023/02/18 05:09:20;;;;;;;26.27;11.63;;;10.90;99.90;;;;;;5016149;28;20045;-83
2023/02/18 05:11:46;;;;;;;21.90;10.23;;;10.80;99.90;;;;;;5009427;28;20041;-84
2023/02/18 05:14:15;;;;;;;23.83;10.93;;;10.80;99.90;;;;;;5035069;28;20041;-80
2023/02/18 05:16:40;;;;;;;24.65;11.88;;;10.80;99.90;;;;;;5025112;28;20512;-78
2023/02/18 05:19:06;;;;;;;27.43;11.57;;;10.80;99.90;;;;;;5033190;28;20124;-78
2023/02/18 05:21:33;;;;;;;24.97;10.17;;;10.80;99.90;;;;;;5034709;28;20095;-80
2023/02/18 05:24:07;;;;;;;23.60;10.02;;;10.80;99.90;;;;;;5034108;28;20038;-79
2023/02/18 05:26:35;;;;;;;23.08;11.18;;;10.80;99.90;;;;;;5019016;28;20453;-81
2023/02/18 05:29:01;;;;;;;23.70;10.30;;;10.80;99.90;;;;;;5019918;28;20029;-79
2023/02/18 05:31:26;;;;;;;21.43;10.43;;;10.80;99.90;;;;;;5035969;28;20099;-80
2023/02/18 05:33:52;;;;;;;20.03;9.20;;;10.70;99.90;;;;;;5052323;28;20025;-79
2023/02/18 05:36:18;;;;;;;21.70;10.07;;;10.80;99.90;;;;;;5018808;28;20456;-80
2023/02/18 05:38:43;;;;;;;16.67;8.77;;;10.80;99.90;;;;;;5034932;28;20029;-79
2023/02/18 05:41:09;;;;;;;18.97;8.70;;;10.70;99.90;;;;;;5019019;28;20049;-79
2023/02/18 05:44:29;;;;;;;14.70;7.20;;;10.80;99.90;;;;;;5036134;28;20537;-79
2023/02/18 05:46:26;;;;;;;16.47;7.33;;;10.70;99.90;;;;;;5036716;28;20038;-82
2023/02/18 05:48:51;;;;;;;14.70;6.83;;;10.70;99.90;;;;;;5034825;28;20061;-80
2023/02/18 05:51:17;;;;;;;16.70;7.97;;;10.70;99.90;;;;;;5035225;28;20049;-80
2023/02/18 05:53:43;;;;;;;13.50;6.50;;;10.70;99.90;;;;;;5018190;28;20406;-80
2023/02/18 05:56:08;;;;;;;13.07;6.73;;;10.60;99.90;;;;;;5034554;28;20021;-80
2023/02/18 05:58:42;;;;;;;14.53;6.90;;;10.60;99.90;;;;;;5034228;28;20032;-79
2023/02/18 06:01:07;;;;;;;11.05;5.07;;;10.60;99.90;;;;;;5034415;28;20033;-78
2023/02/18 06:03:33;;;;;;;13.32;6.40;;;10.60;99.90;;;;;;5034412;28;20017;-78
2023/02/18 06:05:59;;;;;;;13.27;5.93;;;10.60;99.90;;;;;;5035614;28;20025;-78
2023/02/18 06:08:25;;;;;;;11.67;5.00;;;10.60;99.90;;;;;;5034206;28;20508;-78
2023/02/18 06:10:50;;;;;;;10.57;5.13;;;10.60;99.90;;;;;;5017532;28;20502;-78
2023/02/18 06:13:17;;;;;;;11.97;4.87;;;10.60;99.90;;;;;;5034254;28;20021;-79
2023/02/18 06:15:42;;;;;;;10.40;6.00;;;10.50;99.90;;;;;;5035845;28;20029;-84
2023/02/18 06:18:08;;;;;;;14.80;7.63;;;10.50;99.90;;;;;;5033991;28;20390;-84
2023/02/18 06:20:34;;;;;;;19.47;9.77;;;10.50;99.90;;;;;;5035716;28;20022;-86
2023/02/18 06:22:59;;;;;;;19.27;9.02;;;10.60;99.90;;;;;;5019136;28;20037;-83
2023/02/18 06:25:25;;;;;;;19.87;9.60;;;10.50;99.90;;;;;;5035721;28;20083;-86
2023/02/18 06:27:51;;;;;;;19.50;9.83;;;10.40;99.90;;;;;;5018385;28;20033;-85
2023/02/18 06:30:17;;;;;;;17.97;8.67;;;10.50;99.90;;;;;;5019573;28;20037;-86
2023/02/18 06:32:42;;;;;;;15.50;7.93;;;10.40;99.90;;;;;;5035663;28;20028;-86
2023/02/18 06:35:08;;;;;;;15.90;7.17;;;10.50;99.90;;;;;;5035525;28;20025;-85
2023/02/18 06:37:34;;;;;;;15.27;7.07;;;10.40;99.90;;;;;;5017824;28;20124;-86
2023/02/18 06:39:59;;;;;;;17.47;7.57;;;10.50;99.90;;;;;;5017668;28;20036;-86
2023/02/18 06:42:25;;;;;;;17.53;7.87;;;10.40;99.90;;;;;;5033599;28;20033;-84
2023/02/18 06:44:51;;;;;;;17.73;7.73;;;10.40;99.90;;;;;;5034077;28;20026;-86
2023/02/18 06:47:16;;;;;;;20.30;7.80;;;10.40;99.90;;;;;;5017188;28;20021;-85
2023/02/18 06:49:42;;;;;;;17.77;7.33;;;10.40;99.90;;;;;;5033326;28;20099;-85
2023/02/18 06:52:08;;;;;;;19.20;7.93;;;10.40;99.90;;;;;;5016993;28;20462;-86
2023/02/18 06:54:33;;;;;;;16.57;7.07;;;10.40;99.90;;;;;;5017106;28;20075;-85
2023/02/18 06:56:59;;;;;;;16.90;7.23;;;10.40;99.90;;;;;;5034179;28;20409;-84
2023/02/18 06:59:25;;;;;;;16.10;7.07;;;10.40;99.90;;;;;;5034443;28;20041;-85
2023/02/18 07:01:51;;;;;;;15.93;6.63;;;10.40;99.90;;;;;;5033243;28;20038;-85
2023/02/18 07:04:16;;;;;;;14.33;6.37;;;10.40;99.90;;;;;;5016421;28;20033;-83
2023/02/18 07:06:42;;;;;;;16.40;6.70;;;10.40;99.90;;;;;;5033159;28;20040;-84
2023/02/18 07:09:08;;;;;;;16.97;6.80;;;10.40;99.90;;;;;;5016455;28;20049;-84
2023/02/18 07:11:33;;;;;;;17.07;7.90;;;10.40;99.90;;;;;;5033240;28;20026;-84
2023/02/18 07:13:59;;;;;;;19.67;8.13;;;10.40;99.90;;;;;;5034102;28;20029;-85
2023/02/18 07:16:25;;;;;;;19.63;8.90;;;10.30;99.90;;;;;;5034247;28;20512;-86
2023/02/18 07:18:51;;;;;;;20.30;9.73;;;10.40;99.90;;;;;;5033884;28;20527;-86
2023/02/18 07:21:16;;;;;;;25.67;11.77;;;10.30;99.90;;;;;;5016142;28;20125;-84
2023/02/18 07:23:45;;;;;;;24.40;11.10;;;10.30;99.90;;;;;;5034134;28;20370;-84
2023/02/18 07:26:12;;;;;;;20.87;11.17;;;10.40;99.90;;;;;;5032225;28;20025;-86
2023/02/18 07:28:39;;;;;;;25.50;11.80;;;10.30;99.90;;;;;;5033815;28;20091;-83
2023/02/18 07:31:05;;;;;;;27.63;12.00;;;10.30;99.90;;;;;;5032480;28;20036;-86
2023/02/18 07:33:30;;;;;;;20.00;11.63;;;10.40;99.90;;;;;;5032331;28;20390;-86
2023/02/18 07:36:01;;;;;;;20.00;10.93;;;10.40;99.90;;;;;;5005829;28;20087;-86
2023/02/18 07:38:27;;;;;;;20.35;10.98;;;10.40;99.90;;;;;;5034784;28;20060;-85
2023/02/18 07:40:54;;;;;;;21.93;11.73;;;10.40;99.90;;;;;;5021095;28;20033;-88
2023/02/18 07:43:20;;;;;;;21.93;11.60;;;10.40;99.90;;;;;;5032300;28;20029;-86
2023/02/18 07:45:46;;;;;;;22.40;12.00;;;10.40;99.90;;;;;;5016574;28;20033;-89
2023/02/18 07:48:12;;;;;;;20.37;11.07;;;10.50;99.90;;;;;;5032832;28;20029;-87
2023/02/18 07:50:42;;;;;;;21.83;11.23;;;10.40;99.90;;;;;;5033360;28;20052;-87
2023/02/18 07:53:09;;;;;;;20.50;9.50;;;10.40;99.90;;;;;;5016767;28;20475;-86
2023/02/18 07:55:48;;;;;;;20.47;10.27;;;10.40;99.90;;;;;;5033152;28;20030;-89
2023/02/18 07:58:21;;;;;;;23.07;10.03;;;10.40;99.90;;;;;;5033070;28;20037;-87
2023/02/18 08:00:48;;;;;;;26.80;9.53;;;10.40;99.90;;;;;;5034018;28;20112;-88
2023/02/18 08:03:18;;;;;;;23.57;9.37;;;10.30;99.90;;;;;;5032083;28;20030;-87
2023/02/18 08:05:44;;;;;;;21.07;9.57;;;10.40;99.90;;;;;;5030648;28;20037;-87
2023/02/18 08:08:14;;;;;;;25.90;8.10;;;10.40;99.90;;;;;;5032915;28;20044;-87
2023/02/18 08:10:40;;;;;;;30.83;7.87;;;10.30;99.90;;;;;;5029545;28;20026;-88
2023/02/18 08:13:06;;;;;;;20.97;7.03;;;10.40;99.90;;;;;;5032864;28;20124;-88
2023/02/18 08:15:32;;;;;;;19.80;6.10;;;10.30;99.90;;;;;;5033033;28;20045;-87
2023/02/18 08:17:58;;;;;;;20.37;5.47;;;10.30;99.90;;;;;;5032219;28;20033;-88
2023/02/18 08:20:26;;;;;;;17.47;5.77;;;10.30;99.90;;;;;;5016930;28;20022;-86
2023/02/18 08:22:52;;;;;;;19.07;5.17;;;10.40;99.90;;;;;;5033971;28;20540;-86
2023/02/18 08:25:18;;;;;;;21.50;6.00;;;10.40;99.90;;;;;;5032328;28;20116;-88
2023/02/18 08:27:47;;;;;;;17.63;6.87;;;10.50;99.90;;;;;;5015721;28;20036;-86
2023/02/18 08:30:13;;;;;;;17.20;7.50;;;10.50;99.90;;;;;;5029167;28;20489;-85
2023/02/18 08:32:39;;;;;;;21.57;7.43;;;10.50;99.90;;;;;;5032323;28;20021;-87
2023/02/18 08:35:06;;;;;;;22.53;8.30;;;10.50;99.90;;;;;;5032506;28;20422;-84
2023/02/18 08:37:32;;;;;;;22.87;7.13;;;10.50;99.90;;;;;;5016574;28;20037;-87
2023/02/18 08:39:58;;;;;;;19.83;7.67;;;10.50;99.90;;;;;;5032708;28;20167;-86
2023/02/18 08:42:23;;;;;;;24.43;8.07;;;10.50;99.90;;;;;;5032765;28;20029;-86
2023/02/18 08:44:49;;;;;;;21.90;8.70;;;10.40;99.90;;;;;;5032150;28;20388;-87
2023/02/18 08:47:15;;;;;;;22.70;8.37;;;10.50;99.90;;;;;;5015738;28;20036;-86
2023/02/18 08:49:40;;;;;;;28.90;9.67;;;10.40;99.90;;;;;;5015705;28;20030;-87
2023/02/18 08:52:06;;;;;;;25.03;10.33;;;10.40;99.90;;;;;;5015682;28;20037;-87
2023/02/18 08:54:32;;;;;;;31.10;9.90;;;10.40;99.90;;;;;;5001763;28;20105;-85
2023/02/18 08:56:57;;;;;;;22.23;9.70;;;10.40;99.90;;;;;;4996760;28;20474;-85
2023/02/18 08:59:23;;;;;;;24.47;10.27;;;10.30;99.90;;;;;;5032420;28;20109;-85
2023/02/18 09:01:49;;;;;;;25.97;9.47;;;10.30;99.90;;;;;;5031572;28;20504;-87
2023/02/18 09:04:15;;;;;;;29.83;7.37;;;10.40;99.90;;;;;;5012535;28;20030;-84
2023/02/18 09:06:41;;;;;;;17.80;4.57;;;10.30;99.90;;;;;;5011952;28;20026;-86
2023/02/18 09:09:07;;;;;;;14.33;3.77;;;10.30;99.90;;;;;;5009745;28;20053;-85
2023/02/18 09:11:33;;;;;;;21.30;4.17;;;10.20;99.90;;;;;;5020614;28;20022;-87
2023/02/18 09:13:59;;;;;;;11.80;2.93;;;10.20;99.90;;;;;;5015676;28;20104;-87
2023/02/18 09:16:28;;;;;;;19.57;3.50;;;10.10;99.90;;;;;;5015407;28;20021;-78
2023/02/18 09:18:54;;;;;;;15.13;2.30;;;10.10;99.90;;;;;;5015358;28;20065;-79
2023/02/18 09:21:22;;;;;;;22.70;4.07;;;10.00;99.90;;;;;;5035171;28;20033;-81
2023/02/18 09:23:48;;;;;;;12.57;3.43;;;10.00;99.90;;;;;;5035794;28;20116;-79
2023/02/18 09:26:17;;;;;;;21.90;6.63;;;9.90;99.90;;;;;;5035068;28;20021;-81
2023/02/18 09:28:45;;;;;;;18.70;5.83;;;9.90;99.90;;;;;;5035482;28;20021;-81
2023/02/18 09:31:17;;;;;;;23.30;6.17;;;9.90;99.90;;;;;;5016260;28;20169;-82
2023/02/18 09:33:46;;;;;;;31.47;7.90;;;9.80;99.90;;;;;;5025199;28;20026;-81
2023/02/18 09:36:12;;;;;;;23.80;7.13;;;9.70;99.90;;;;;;5015839;28;20026;-81
2023/02/18 09:38:40;;;;;;;28.10;6.23;;;9.80;99.90;;;;;;5016007;28;20034;-81
2023/02/18 09:41:13;;;;;;;23.63;5.83;;;9.70;99.90;;;;;;5032183;28;20061;-81
2023/02/18 09:43:48;;;;;;;26.90;7.63;;;9.70;99.90;;;;;;5036208;28;20022;-82
2023/02/18 09:46:36;;;;;;;24.63;6.00;;;9.70;99.90;;;;;;5035771;28;20021;-80
2023/02/18 09:49:06;;;;;;;19.57;5.73;;;9.70;99.90;;;;;;5036053;28;20362;-81
2023/02/18 09:51:32;;;;;;;30.73;6.00;;;9.70;99.90;;;;;;5036678;28;20183;-80
2023/02/18 09:53:58;;;;;;;25.47;6.60;;;9.70;99.90;;;;;;5036758;28;20045;-83
2023/02/18 09:56:34;;;;;;;21.50;4.77;;;9.70;99.90;;;;;;5035305;28;20100;-81
2023/02/18 09:59:07;;;;;;;27.40;5.23;;;9.70;99.90;;;;;;5035059;28;20120;-82
2023/02/18 10:01:36;;;;;;;24.67;5.00;;;9.70;99.90;;;;;;5014447;28;20026;-80
2023/02/18 10:04:30;;;;;;;21.27;4.13;;;9.70;99.90;;;;;;5015166;28;20022;-80
2023/02/18 10:06:57;;;;;;;22.88;4.03;;;9.70;99.90;;;;;;5014880;28;20072;-80
2023/02/18 10:09:37;;;;;;;19.17;3.60;;;9.70;99.90;;;;;;5014465;28;20073;-81
2023/02/18 10:12:16;;;;;;;16.60;4.00;;;9.70;99.90;;;;;;5014767;28;20021;-80
2023/02/18 10:14:55;;;;;;;18.63;3.77;;;9.80;99.90;;;;;;5016536;28;20030;-80
2023/02/18 10:17:25;;;;;;;18.60;4.03;;;9.80;99.90;;;;;;5016352;28;20382;-80
2023/02/18 10:19:53;;;;;;;17.70;4.10;;;9.80;99.90;;;;;;5029282;28;20057;-81
2023/02/18 10:22:21;;;;;;;23.40;3.43;;;9.80;99.90;;;;;;5020267;28;20024;-80
2023/02/18 10:24:49;;;;;;;22.20;3.53;;;9.90;99.90;;;;;;5020177;28;20033;-81
2023/02/18 10:27:23;;;;;;;22.37;3.57;;;9.90;99.90;;;;;;5014412;28;20096;-80
2023/02/18 10:29:49;;;;;;;19.17;3.63;;;9.90;99.90;;;;;;5014012;28;20117;-79
2023/02/18 10:32:31;;;;;;;17.40;3.00;;;9.90;99.90;;;;;;5014994;28;20109;-80
2023/02/18 10:35:24;;;;;;;15.67;2.77;;;9.90;99.90;;;;;;5013774;28;20032;-81
2023/02/18 10:37:52;;;;;;;20.60;4.20;;;9.90;99.90;;;;;;5010826;28;20088;-80
2023/02/18 10:40:36;;;;;;;21.97;4.30;;;9.90;99.90;;;;;;5014189;28;20373;-81
2023/02/18 10:43:11;;;;;;;11.75;3.15;;;9.90;99.90;;;;;;5032362;28;20029;-86
2023/02/18 10:45:48;;;;;;;20.50;4.10;;;9.90;99.90;;;;;;5037488;28;20025;-90
2023/02/18 10:48:42;;;;;;;17.27;3.20;;;10.00;99.90;;;;;;5037442;28;20013;-88
2023/02/18 10:51:18;;;;;;;18.30;3.97;;;10.00;99.90;;;;;;5033987;28;20451;-88
2023/02/18 10:53:46;;;;;;;18.33;3.10;;;10.00;99.90;;;;;;5034596;28;20025;-86
2023/02/18 10:56:45;;;;;;;17.57;3.00;;;10.00;99.90;;;;;;5027140;28;20026;-88
2023/02/18 10:59:22;;;;;;;14.67;3.60;;;10.00;99.90;;;;;;5034548;28;20025;-85
2023/02/18 11:02:16;;;;;;;20.30;3.73;;;10.00;99.90;;;;;;5034582;28;20041;-86
2023/02/18 11:04:44;;;;;;;18.60;3.80;;;10.00;99.90;;;;;;5034807;28;20033;-89
2023/02/18 11:07:17;;;;;;;21.37;4.30;;;10.00;99.90;;;;;;5027242;28;20029;-86
2023/02/18 11:09:51;;;;;;;18.58;4.00;;;10.00;99.90;;;;;;5034394;28;20144;-86
2023/02/18 11:12:30;;;;;;;17.53;4.43;;;10.10;99.90;;;;;;5036503;28;20108;-86
2023/02/18 11:15:13;;;;;;;23.00;4.20;;;10.10;99.90;;;;;;5034900;28;20056;-90
2023/02/18 11:17:44;;;;;;;21.27;4.17;;;10.10;99.90;;;;;;5034358;28;20022;-88
2023/02/18 11:20:31;;;;;;;21.97;5.53;;;10.20;99.90;;;;;;5033762;28;20033;-88
2023/02/18 11:22:59;;;;;;;17.80;3.70;;;10.20;99.90;;;;;;5032146;28;20021;-87
2023/02/18 11:25:31;;;;;;;19.87;4.80;;;10.20;99.90;;;;;;5015278;28;20098;-89
2023/02/18 11:28:19;;;;;;;21.50;4.20;;;10.30;99.90;;;;;;5020396;28;20022;-86
2023/02/18 11:30:52;;;;;;;17.17;4.03;;;10.30;99.90;;;;;;5031684;28;20029;-88
2023/02/18 11:33:23;;;;;;;17.83;4.33;;;10.30;99.90;;;;;;5034140;28;20148;-87
2023/02/18 11:35:51;;;;;;;16.73;4.00;;;10.40;99.90;;;;;;5034350;28;20029;-85
2023/02/18 11:38:36;;;;;;;20.10;4.10;;;10.40;99.90;;;;;;5019869;28;20466;-88
2023/02/18 11:41:07;;;;;;;15.63;4.10;;;10.40;99.90;;;;;;5019778;28;20505;-87
2023/02/18 11:43:34;;;;;;;20.77;3.90;;;10.50;99.90;;;;;;5029055;28;20108;-86
2023/02/18 11:46:21;;;;;;;13.77;3.73;;;10.50;99.90;;;;;;5015590;28;20026;-88
2023/02/18 11:48:48;;;;;;;18.30;4.53;;;10.60;99.90;;;;;;5033779;28;20028;-87
2023/02/18 11:51:17;;;;;;;21.33;4.50;;;10.60;99.90;;;;;;5033522;28;20029;-89
2023/02/18 11:54:01;;;;;;;14.37;4.60;;;10.70;99.90;;;;;;5016822;28;20108;-88
2023/02/18 11:56:30;;;;;;;18.20;4.50;;;10.70;99.90;;;;;;5023756;28;20048;-79
2023/02/18 11:58:56;;;;;;;21.07;4.77;;;10.70;99.90;;;;;;5032109;28;20024;-79
2023/02/18 12:01:44;;;;;;;23.92;5.53;;;10.70;99.90;;;;;;5029645;28;20083;-80
2023/02/18 12:04:16;;;;;;;25.20;5.63;;;10.70;99.90;;;;;;5020152;28;20022;-79
2023/02/18 12:07:04;;;;;;;16.50;4.30;;;10.80;99.90;;;;;;5016854;28;20088;-78
2023/02/18 12:09:43;;;;;;;15.73;5.28;;;10.80;99.90;;;;;;5031793;28;20449;-79
2023/02/18 12:12:23;;;;;;;25.02;5.82;;;10.80;99.90;;;;;;5033314;28;20103;-82
2023/02/18 12:14:50;;;;;;;18.17;4.70;;;10.80;99.90;;;;;;5031576;28;20513;-79
2023/02/18 12:17:51;;;;;;;21.67;5.60;;;10.80;99.90;;;;;;5032150;28;20025;-79
2023/02/18 12:20:35;;;;;;;19.45;5.30;;;10.80;99.90;;;;;;5033299;28;20478;-78
2023/02/18 12:23:41;;;;;;;21.58;5.22;;;10.80;99.90;;;;;;5032431;28;20036;-79
2023/02/18 12:26:34;;;;;;;25.17;6.90;;;10.80;99.90;;;;;;5033569;28;20021;-80
2023/02/18 12:29:19;;;;;;;23.53;6.53;;;10.80;99.90;;;;;;5015400;28;20049;-80
2023/02/18 12:31:56;;;;;;;29.25;7.28;;;10.80;99.90;;;;;;5018667;28;20034;-79
2023/02/18 12:34:40;;;;;;;22.83;7.67;;;10.70;99.90;;;;;;5012076;28;20030;-79
2023/02/18 12:37:30;;;;;;;26.25;7.75;;;10.70;99.90;;;;;;5012086;28;20470;-80
2023/02/18 12:40:01;;;;;;;23.70;6.70;;;10.80;99.90;;;;;;5011969;28;20492;-79
2023/02/18 12:42:39;;;;;;;16.67;6.00;;;10.80;99.90;;;;;;5011985;28;20030;-79
2023/02/18 12:45:38;;;;;;;24.10;7.63;;;10.80;99.90;;;;;;5011944;28;20491;-78
2023/02/18 12:48:33;;;;;;;21.40;6.33;;;10.80;99.90;;;;;;5014001;28;20022;-79
2023/02/18 12:51:33;;;;;;;21.37;7.00;;;10.90;99.90;;;;;;5015898;28;20467;-78
2023/02/18 12:54:20;;;;;;;21.60;6.45;;;10.90;99.90;;;;;;5014114;28;20121;-79
2023/02/18 12:56:49;;;;;;;19.67;6.28;;;10.90;99.90;;;;;;5015654;28;20018;-79